createdAt,value
2018-01-10T00:01:55.169Z,2.00
2018-01-10T00:04:23.413Z,1.40
2018-01-10T00:06:50.942Z,1.95
2018-01-10T00:09:18.413Z,1.70
2018-01-10T00:11:45.897Z,1.20
2018-01-10T00:14:13.393Z,1.40
2018-01-10T00:16:40.832Z,1.15
2018-01-10T00:19:08.305Z,1.50
2018-01-10T00:21:35.749Z,1.42
2018-01-10T00:24:03.200Z,1.45
2018-01-10T00:26:32.181Z,1.35
2018-01-10T00:28:59.655Z,1.60
2018-01-10T00:31:27.172Z,1.17
2018-01-10T00:33:54.687Z,0.80
2018-01-10T00:36:22.284Z,1.20
2018-01-10T00:38:49.759Z,1.15
2018-01-10T00:41:17.332Z,1.58
2018-01-10T00:43:44.820Z,2.20
2018-01-10T00:46:13.035Z,0.93
2018-01-10T00:48:40.573Z,1.65
2018-01-10T00:51:08.091Z,1.37
2018-01-10T00:53:35.631Z,1.40
2018-01-10T00:56:03.093Z,1.30
2018-01-10T00:58:30.710Z,1.55
2018-01-10T01:00:58.243Z,2.60
2018-01-10T01:03:26.548Z,1.90
2018-01-10T01:05:54.108Z,2.85
2018-01-10T01:08:21.706Z,2.28
2018-01-10T01:10:49.254Z,2.40
2018-01-10T01:13:16.796Z,1.92
2018-01-10T01:15:44.375Z,2.03
2018-01-10T01:18:12.027Z,2.42
2018-01-10T01:20:39.537Z,2.45
2018-01-10T01:23:07.853Z,2.67
2018-01-10T01:25:35.473Z,1.60
2018-01-10T01:28:03.784Z,1.95
2018-01-10T01:30:31.357Z,2.75
2018-01-10T01:32:59.018Z,3.87
2018-01-10T01:35:26.525Z,2.10
2018-01-10T01:37:54.800Z,1.85
2018-01-10T01:40:22.304Z,3.35
2018-01-10T01:42:49.846Z,2.40
2018-01-10T01:45:17.403Z,1.83
2018-01-10T01:47:44.983Z,2.33
2018-01-10T01:50:12.555Z,2.25
2018-01-10T01:52:40.164Z,2.10
2018-01-10T01:55:08.491Z,3.03
2018-01-10T01:57:36.069Z,2.47
2018-01-10T02:00:03.568Z,3.25
2018-01-10T02:02:31.811Z,1.55
2018-01-10T02:04:59.381Z,1.70
2018-01-10T02:07:26.896Z,3.25
2018-01-10T02:09:54.437Z,1.95
2018-01-10T02:12:21.948Z,2.45
2018-01-10T02:14:49.458Z,2.20
2018-01-10T02:17:16.949Z,2.15
2018-01-10T02:19:44.453Z,1.87
2018-01-10T02:22:12.732Z,2.00
2018-01-10T02:24:41.009Z,1.95
2018-01-10T02:27:09.283Z,3.72
2018-01-10T02:29:37.574Z,2.22
2018-01-10T02:32:05.853Z,2.53
2018-01-10T02:34:33.394Z,2.90
2018-01-10T02:37:01.702Z,1.70
2018-01-10T02:39:29.177Z,1.73
2018-01-10T02:41:56.686Z,2.20
2018-01-10T02:44:24.973Z,3.40
2018-01-10T02:46:53.282Z,2.00
2018-01-10T02:49:20.810Z,1.80
2018-01-10T02:51:48.336Z,2.30
2018-01-10T02:54:15.828Z,2.85
2018-01-10T02:56:44.148Z,2.00
2018-01-10T02:59:11.619Z,2.35
2018-01-10T03:01:39.129Z,2.20
2018-01-10T03:04:06.670Z,2.10
2018-01-10T03:06:35.000Z,2.53
2018-01-10T03:09:02.450Z,2.33
2018-01-10T03:11:29.985Z,1.65
2018-01-10T03:13:57.499Z,1.45
2018-01-10T03:16:25.019Z,1.90
2018-01-10T03:18:52.575Z,2.10
2018-01-10T03:21:20.153Z,1.92
2018-01-10T03:23:47.686Z,1.95
2018-01-10T03:26:15.261Z,2.80
2018-01-10T03:28:42.846Z,2.85
2018-01-10T03:31:10.385Z,2.25
2018-01-10T03:33:37.943Z,2.40
2018-01-10T03:36:05.505Z,2.12
2018-01-10T03:38:33.121Z,2.87
2018-01-10T03:41:01.438Z,2.20
2018-01-10T03:43:28.986Z,2.85
2018-01-10T03:45:56.481Z,2.97
2018-01-10T03:48:23.979Z,1.80
2018-01-10T03:50:52.315Z,2.55
2018-01-10T03:53:19.875Z,2.70
2018-01-10T03:55:47.489Z,2.75
2018-01-10T03:58:15.016Z,1.90
2018-01-10T04:00:42.465Z,1.60
2018-01-10T04:03:09.979Z,2.53
2018-01-10T04:05:37.663Z,1.98
2018-01-10T04:08:05.238Z,3.15
2018-01-10T04:10:32.873Z,2.40
2018-01-10T04:13:00.414Z,2.75
2018-01-10T04:15:27.962Z,2.72
2018-01-10T04:17:55.592Z,2.30
2018-01-10T04:20:23.146Z,2.22
2018-01-10T04:22:50.696Z,1.73
2018-01-10T04:25:18.219Z,2.40
2018-01-10T04:27:45.767Z,1.92
2018-01-10T04:30:14.090Z,2.45
2018-01-10T04:32:41.643Z,2.53
2018-01-10T04:35:09.166Z,3.47
2018-01-10T04:37:36.688Z,1.85
2018-01-10T04:40:04.219Z,2.28
2018-01-10T04:42:31.871Z,2.50
2018-01-10T04:44:59.323Z,3.05
2018-01-10T04:47:26.959Z,1.98
2018-01-10T04:49:54.524Z,2.05
2018-01-10T04:52:22.864Z,2.37
2018-01-10T04:54:50.387Z,1.98
2018-01-10T04:57:17.945Z,2.22
2018-01-10T04:59:45.472Z,2.08
2018-01-10T05:02:13.031Z,3.08
2018-01-10T05:04:41.301Z,2.87
2018-01-10T05:07:09.623Z,2.03
2018-01-10T05:09:37.186Z,2.30
2018-01-10T05:12:04.836Z,1.70
2018-01-10T05:14:32.495Z,2.28
2018-01-10T05:16:59.964Z,2.03
2018-01-10T05:19:27.523Z,2.30
2018-01-10T05:21:55.073Z,2.47
2018-01-10T05:24:22.614Z,2.80
2018-01-10T05:26:50.204Z,2.67
2018-01-10T05:29:17.783Z,2.12
2018-01-10T05:31:45.279Z,1.70
2018-01-10T05:34:12.888Z,2.42
2018-01-10T05:36:40.455Z,1.83
2018-01-10T05:39:08.115Z,1.25
2018-01-10T05:41:35.587Z,3.03
2018-01-10T05:44:03.108Z,1.87
2018-01-10T05:46:30.671Z,2.17
2018-01-10T05:48:58.246Z,2.60
2018-01-10T05:51:25.755Z,1.98
2018-01-10T05:53:53.458Z,2.25
2018-01-10T05:56:21.049Z,1.87
2018-01-10T05:58:48.533Z,2.67
2018-01-10T06:01:16.088Z,2.20
2018-01-10T06:03:44.404Z,4.00
2018-01-10T06:06:11.913Z,2.85
2018-01-10T06:08:39.395Z,2.90
2018-01-10T06:11:07.717Z,2.78
2018-01-10T06:13:35.222Z,2.70
2018-01-10T06:16:03.554Z,2.80
2018-01-10T06:18:31.056Z,2.53
2018-01-10T06:20:58.574Z,1.70
2018-01-10T06:23:26.090Z,2.22
2018-01-10T06:25:53.727Z,2.55
2018-01-10T06:28:21.280Z,2.85
2018-01-10T06:30:48.834Z,2.65
2018-01-10T06:33:16.304Z,2.40
2018-01-10T06:35:43.846Z,3.28
2018-01-10T06:38:11.391Z,2.90
2018-01-10T06:40:38.896Z,3.30
2018-01-10T06:43:07.170Z,3.42
2018-01-10T06:45:35.489Z,2.03
2018-01-10T06:48:03.013Z,2.78
2018-01-10T06:50:30.529Z,2.45
2018-01-10T06:52:58.094Z,2.78
2018-01-10T06:55:25.642Z,2.78
2018-01-10T06:57:53.287Z,2.00
2018-01-10T07:00:20.830Z,1.92
2018-01-10T07:02:48.268Z,3.33
2018-01-10T07:05:16.567Z,3.85
2018-01-10T07:07:44.126Z,3.33
2018-01-10T07:10:11.686Z,3.58
2018-01-10T07:12:39.232Z,2.22
2018-01-10T07:15:06.779Z,2.12
2018-01-10T07:17:35.075Z,1.73
2018-01-10T07:20:02.662Z,2.58
2018-01-10T07:22:30.112Z,1.95
2018-01-10T07:24:57.638Z,2.85
2018-01-10T07:27:26.056Z,2.95
2018-01-10T07:29:53.625Z,2.00
2018-01-10T07:32:21.163Z,3.90
2018-01-10T07:34:48.638Z,2.40
2018-01-10T07:37:16.143Z,2.85
2018-01-10T07:39:44.472Z,3.15
2018-01-10T07:42:12.157Z,2.47
2018-01-10T07:44:39.828Z,2.22
2018-01-10T07:47:07.390Z,1.67
2018-01-10T07:49:35.746Z,2.37
2018-01-10T07:52:03.312Z,2.53
2018-01-10T07:54:30.768Z,2.50
2018-01-10T07:56:58.335Z,1.70
2018-01-10T07:59:25.811Z,2.20
2018-01-10T08:01:53.526Z,2.08
2018-01-10T08:04:21.090Z,2.03
2018-01-10T08:06:48.643Z,2.25
2018-01-10T08:09:16.197Z,1.60
2018-01-10T08:11:43.739Z,2.22
2018-01-10T08:14:11.298Z,2.65
2018-01-10T08:16:38.885Z,2.35
2018-01-10T08:19:06.512Z,2.60
2018-01-10T08:21:34.080Z,3.00
2018-01-10T08:24:01.603Z,2.10
2018-01-10T08:26:29.175Z,2.83
2018-01-10T08:28:56.725Z,2.62
2018-01-10T08:31:24.275Z,1.92
2018-01-10T08:33:51.724Z,1.83
2018-01-10T08:36:19.236Z,2.37
2018-01-10T08:38:47.733Z,2.22
2018-01-10T08:41:15.244Z,2.40
2018-01-10T08:43:42.766Z,2.45
2018-01-10T08:46:10.377Z,3.50
2018-01-10T08:48:37.972Z,2.35
2018-01-10T08:51:05.520Z,3.25
2018-01-10T08:53:33.070Z,3.90
2018-01-10T08:56:01.393Z,2.17
2018-01-10T08:58:28.912Z,3.08
2018-01-10T09:00:56.436Z,3.65
2018-01-10T09:03:23.990Z,2.85
2018-01-10T09:05:51.596Z,4.15
2018-01-10T09:08:19.100Z,5.87
2018-01-10T09:10:46.668Z,4.05
2018-01-10T09:13:14.200Z,5.07
2018-01-10T09:15:41.719Z,3.33
2018-01-10T09:18:09.279Z,4.05
2018-01-10T09:20:37.579Z,3.00
2018-01-10T09:23:05.036Z,2.45
2018-01-10T09:25:32.554Z,3.35
2018-01-10T09:28:00.259Z,2.87
2018-01-10T09:30:27.843Z,2.58
2018-01-10T09:32:55.404Z,3.37
2018-01-10T09:35:23.016Z,2.70
2018-01-10T09:37:50.541Z,3.60
2018-01-10T09:40:18.116Z,3.97
2018-01-10T09:42:45.679Z,3.03
2018-01-10T09:45:13.289Z,2.90
2018-01-10T09:47:40.860Z,2.90
2018-01-10T09:50:08.313Z,3.00
2018-01-10T09:52:35.824Z,4.25
2018-01-10T09:55:03.266Z,2.53
2018-01-10T09:57:32.314Z,3.42
2018-01-10T09:59:59.851Z,4.05
2018-01-10T10:02:27.350Z,2.70
2018-01-10T10:04:55.080Z,2.95
2018-01-10T10:07:22.576Z,3.50
2018-01-10T10:09:50.049Z,2.42
2018-01-10T10:12:17.774Z,3.45
2018-01-10T10:14:45.533Z,3.53
2018-01-10T10:17:13.022Z,2.20
2018-01-10T10:19:40.612Z,2.60
2018-01-10T10:22:09.032Z,2.78
2018-01-10T10:24:36.579Z,2.33
2018-01-10T10:27:04.158Z,2.65
2018-01-10T10:29:31.717Z,2.17
2018-01-10T10:32:00.374Z,1.90
2018-01-10T10:34:28.683Z,3.00
2018-01-10T10:36:56.379Z,3.60
2018-01-10T10:39:23.934Z,3.33
2018-01-10T10:41:51.472Z,2.95
2018-01-10T10:44:19.066Z,3.10
2018-01-10T10:46:46.630Z,3.45
2018-01-10T10:49:14.137Z,4.05
2018-01-10T10:51:41.652Z,4.87
2018-01-10T10:54:10.088Z,3.75
2018-01-10T10:56:37.608Z,3.45
2018-01-10T10:59:05.929Z,3.05
2018-01-10T11:01:33.445Z,3.17
2018-01-10T11:04:00.983Z,2.83
2018-01-10T11:06:28.501Z,2.67
2018-01-10T11:08:56.063Z,3.67
2018-01-10T11:11:23.565Z,3.97
2018-01-10T11:13:51.110Z,4.15
2018-01-10T11:16:18.643Z,3.08
2018-01-10T11:18:46.268Z,4.43
2018-01-10T11:21:13.770Z,3.95
2018-01-10T11:23:41.237Z,3.83
2018-01-10T11:26:08.780Z,4.10
2018-01-10T11:28:36.323Z,5.87
2018-01-10T11:31:03.829Z,3.53
2018-01-10T11:33:31.736Z,3.25
2018-01-10T11:35:59.312Z,3.75
2018-01-10T11:38:26.763Z,3.28
2018-01-10T11:40:54.341Z,3.05
2018-01-10T11:43:21.854Z,3.03
2018-01-10T11:45:49.353Z,3.67
2018-01-10T11:48:17.034Z,2.50
2018-01-10T11:50:44.652Z,2.87
2018-01-10T11:53:12.167Z,2.55
2018-01-10T11:55:39.696Z,3.10
2018-01-10T11:58:07.205Z,2.12
2018-01-10T12:00:34.745Z,2.87
2018-01-10T12:03:02.270Z,3.72
2018-01-10T12:05:29.835Z,4.03
2018-01-10T12:07:57.482Z,4.35
2018-01-10T12:10:24.960Z,2.95
2018-01-10T12:12:52.540Z,2.80
2018-01-10T12:15:20.054Z,3.03
2018-01-10T12:17:47.555Z,3.05
2018-01-10T12:20:15.110Z,3.53
2018-01-10T12:22:42.669Z,3.03
2018-01-10T12:25:10.239Z,4.25
2018-01-10T12:27:38.605Z,3.40
2018-01-10T12:30:06.161Z,2.60
2018-01-10T12:32:33.720Z,3.72
2018-01-10T12:35:01.238Z,4.35
2018-01-10T12:37:28.781Z,3.30
2018-01-10T12:39:56.288Z,3.30
2018-01-10T12:42:23.957Z,3.33
2018-01-10T12:44:51.514Z,3.20
2018-01-10T12:47:19.081Z,3.25
2018-01-10T12:49:46.621Z,4.32
2018-01-10T12:52:14.130Z,3.78
2018-01-10T12:54:41.693Z,3.37
2018-01-10T12:57:09.940Z,3.55
2018-01-10T12:59:37.447Z,3.30
2018-01-10T13:02:04.968Z,2.95
2018-01-10T13:04:32.471Z,2.58
2018-01-10T13:06:59.994Z,2.10
2018-01-10T13:09:27.543Z,2.25
2018-01-10T13:11:54.985Z,2.30
2018-01-10T13:14:22.546Z,2.37
2018-01-10T13:16:50.037Z,2.20
2018-01-10T13:19:18.398Z,3.10
2018-01-10T13:21:45.943Z,2.10
2018-01-10T13:24:13.450Z,2.17
2018-01-10T13:26:41.007Z,2.30
2018-01-10T13:29:08.506Z,2.65
2018-01-10T13:31:36.143Z,2.22
2018-01-10T13:34:03.689Z,3.30
2018-01-10T13:36:31.242Z,2.95
2018-01-10T13:38:58.790Z,3.20
2018-01-10T13:41:27.123Z,1.92
2018-01-10T13:43:54.669Z,2.40
2018-01-10T13:46:22.224Z,2.58
2018-01-10T13:48:49.714Z,1.77
2018-01-10T13:51:17.279Z,1.62
2018-01-10T13:53:44.910Z,2.35
2018-01-10T13:56:12.438Z,1.95
2018-01-10T13:58:41.735Z,1.92
2018-01-10T14:01:10.165Z,2.53
2018-01-10T14:03:37.672Z,1.40
2018-01-10T14:06:05.967Z,2.45
2018-01-10T14:08:33.528Z,1.40
2018-01-10T14:11:01.128Z,1.55
2018-01-10T14:13:28.674Z,2.42
2018-01-10T14:15:56.327Z,2.12
2018-01-10T14:18:23.845Z,1.58
2018-01-10T14:20:52.155Z,2.20
2018-01-10T14:23:19.709Z,2.35
2018-01-10T14:25:47.238Z,1.37
2018-01-10T14:28:15.659Z,1.30
2018-01-10T14:30:43.173Z,1.50
2018-01-10T14:33:11.499Z,1.20
2018-01-10T14:35:39.449Z,1.23
2018-01-10T14:38:06.965Z,1.62
2018-01-10T14:40:34.514Z,1.42
2018-01-10T14:43:01.988Z,1.12
2018-01-10T14:45:30.978Z,0.90
2018-01-10T14:47:58.518Z,1.48
2018-01-10T14:50:26.110Z,1.92
2018-01-10T14:52:54.375Z,1.05
2018-01-10T14:55:21.942Z,1.80
2018-01-10T14:57:50.225Z,1.73
2018-01-10T15:00:17.844Z,2.42
2018-01-10T15:02:45.595Z,1.35
2018-01-10T15:05:13.059Z,2.97
2018-01-10T15:07:40.622Z,2.33
2018-01-10T15:10:08.076Z,1.25
2018-01-10T15:12:35.691Z,2.25
2018-01-10T15:15:03.987Z,2.05
2018-01-10T15:17:31.493Z,2.80
2018-01-10T15:19:59.029Z,1.98
2018-01-10T15:22:26.654Z,1.85
2018-01-10T15:24:54.173Z,1.67
2018-01-10T15:27:21.627Z,2.03
2018-01-10T15:29:49.188Z,1.55
2018-01-10T15:32:16.948Z,1.60
2018-01-10T15:34:44.515Z,1.40
2018-01-10T15:37:12.058Z,2.08
2018-01-10T15:39:39.540Z,3.40
2018-01-10T15:42:07.813Z,3.15
2018-01-10T15:44:35.365Z,2.00
2018-01-10T15:47:02.892Z,2.00
2018-01-10T15:49:30.395Z,3.05
2018-01-10T15:51:58.378Z,1.92
2018-01-10T15:54:25.940Z,2.53
2018-01-10T15:56:54.282Z,2.00
2018-01-10T15:59:21.875Z,1.40
2018-01-10T16:01:50.105Z,2.55
2018-01-10T16:04:17.654Z,2.40
2018-01-10T16:06:45.223Z,2.45
2018-01-10T16:09:12.812Z,1.52
2018-01-10T16:11:40.369Z,3.12
2018-01-10T16:14:07.891Z,2.80
2018-01-10T16:16:35.427Z,1.42
2018-01-10T16:19:03.120Z,2.55
2018-01-10T16:21:30.683Z,1.80
2018-01-10T16:23:58.233Z,2.20
2018-01-10T16:26:25.879Z,1.75
2018-01-10T16:28:53.445Z,2.17
2018-01-10T16:31:21.020Z,2.80
2018-01-10T16:33:48.525Z,2.35
2018-01-10T16:36:16.038Z,1.50
2018-01-10T16:38:43.802Z,1.75
2018-01-10T16:41:11.353Z,2.28
2018-01-10T16:43:39.106Z,2.28
2018-01-10T16:46:06.636Z,1.80
2018-01-10T16:48:35.164Z,2.85
2018-01-10T16:51:02.753Z,2.85
2018-01-10T16:53:30.275Z,2.22
2018-01-10T16:55:57.808Z,2.45
2018-01-10T16:58:25.270Z,2.92
2018-01-10T17:00:53.806Z,3.47
2018-01-10T17:03:21.329Z,1.92
2018-01-10T17:05:48.896Z,2.15
2018-01-10T17:08:16.451Z,2.97
2018-01-10T17:10:43.927Z,1.73
2018-01-10T17:13:11.498Z,3.90
2018-01-10T17:15:39.145Z,2.08
2018-01-10T17:18:06.746Z,2.58
2018-01-10T17:20:34.289Z,2.33
2018-01-10T17:23:01.798Z,2.80
2018-01-10T17:25:29.406Z,2.55
2018-01-10T17:27:56.938Z,2.37
2018-01-10T17:30:24.548Z,2.90
2018-01-10T17:32:52.856Z,3.00
2018-01-10T17:35:20.402Z,3.40
2018-01-10T17:37:47.932Z,2.58
2018-01-10T17:40:16.911Z,3.70
2018-01-10T17:42:44.474Z,1.65
2018-01-10T17:45:12.029Z,3.42
2018-01-10T17:47:39.587Z,3.37
2018-01-10T17:50:07.102Z,3.40
2018-01-10T17:52:34.603Z,2.28
2018-01-10T17:55:02.148Z,1.80
2018-01-10T17:57:29.744Z,2.60
2018-01-10T17:59:57.330Z,2.22
2018-01-10T18:02:24.997Z,2.47
2018-01-10T18:04:53.265Z,2.58
2018-01-10T18:07:21.624Z,2.08
2018-01-10T18:09:49.193Z,3.58
2018-01-10T18:12:16.706Z,2.45
2018-01-10T18:14:44.282Z,3.33
2018-01-10T18:17:11.771Z,4.18
2018-01-10T18:19:40.104Z,3.30
2018-01-10T18:22:07.613Z,4.20
2018-01-10T18:24:35.163Z,2.78
2018-01-10T18:27:02.706Z,3.78
2018-01-10T18:29:30.283Z,2.60
2018-01-10T18:31:57.795Z,3.15
2018-01-10T18:34:25.361Z,3.47
2018-01-10T18:36:52.921Z,2.30
2018-01-10T18:39:20.429Z,2.70
2018-01-10T18:41:48.010Z,3.10
2018-01-10T18:44:16.411Z,3.03
2018-01-10T18:46:43.968Z,2.65
2018-01-10T18:49:11.466Z,3.20
2018-01-10T18:51:38.997Z,2.35
2018-01-10T18:54:06.543Z,3.25
2018-01-10T18:56:34.049Z,4.57
2018-01-10T18:59:01.592Z,3.53
2018-01-10T19:01:29.308Z,3.37
2018-01-10T19:03:56.906Z,3.12
2018-01-10T19:06:24.428Z,2.72
2018-01-10T19:08:52.006Z,2.70
2018-01-10T19:11:19.667Z,3.60
2018-01-10T19:13:47.249Z,2.42
2018-01-10T19:16:14.758Z,2.95
2018-01-10T19:18:43.196Z,2.85
2018-01-10T19:21:10.732Z,3.35
2018-01-10T19:23:38.250Z,3.47
2018-01-10T19:26:05.756Z,3.95
2018-01-10T19:28:33.313Z,3.45
2018-01-10T19:31:00.825Z,3.80
2018-01-10T19:33:29.145Z,2.60
2018-01-10T19:35:56.715Z,3.42
2018-01-10T19:38:24.199Z,2.78
2018-01-10T19:40:51.833Z,5.30
2018-01-10T19:43:19.411Z,3.25
2018-01-10T19:45:46.913Z,2.85
2018-01-10T19:48:14.634Z,2.60
2018-01-10T19:50:42.147Z,3.15
2018-01-10T19:53:09.665Z,3.28
2018-01-10T19:55:37.153Z,2.75
2018-01-10T19:58:04.741Z,3.70
2018-01-10T20:00:32.287Z,3.75
2018-01-10T20:02:59.817Z,2.70
2018-01-10T20:05:28.072Z,2.15
2018-01-10T20:07:55.573Z,2.72
2018-01-10T20:10:23.134Z,4.68
2018-01-10T20:12:50.665Z,3.65
2018-01-10T20:15:18.923Z,3.45
2018-01-10T20:17:46.424Z,3.40
2018-01-10T20:20:13.961Z,3.65
2018-01-10T20:22:41.515Z,5.15
2018-01-10T20:25:09.020Z,4.60
2018-01-10T20:27:37.525Z,3.83
2018-01-10T20:30:05.083Z,4.18
2018-01-10T20:32:32.632Z,5.03
2018-01-10T20:35:00.179Z,5.07
2018-01-10T20:37:27.685Z,4.50
2018-01-10T20:39:55.275Z,3.85
2018-01-10T20:42:22.792Z,3.62
2018-01-10T20:44:50.280Z,4.00
2018-01-10T20:47:18.534Z,4.30
2018-01-10T20:49:46.071Z,4.72
2018-01-10T20:52:13.615Z,4.07
2018-01-10T20:54:41.218Z,2.92
2018-01-10T20:57:08.717Z,3.15
2018-01-10T20:59:36.394Z,4.00
2018-01-10T21:02:04.062Z,4.72
2018-01-10T21:04:31.550Z,3.87
2018-01-10T21:06:59.172Z,4.37
2018-01-10T21:09:26.698Z,3.03
2018-01-10T21:11:54.967Z,3.75
2018-01-10T21:14:23.282Z,4.68
2018-01-10T21:16:50.765Z,4.70
2018-01-10T21:19:18.343Z,3.70
2018-01-10T21:21:45.842Z,6.07
2018-01-10T21:24:13.469Z,3.40
2018-01-10T21:26:40.986Z,4.80
2018-01-10T21:29:08.480Z,3.78
2018-01-10T21:31:36.022Z,3.05
2018-01-10T21:34:03.555Z,4.25
2018-01-10T21:36:31.076Z,4.18
2018-01-10T21:38:59.380Z,5.12
2018-01-10T21:41:26.939Z,4.03
2018-01-10T21:43:54.529Z,3.75
2018-01-10T21:46:22.095Z,4.85
2018-01-10T21:48:49.610Z,5.80
2018-01-10T21:51:17.919Z,3.40
2018-01-10T21:53:45.454Z,3.65
2018-01-10T21:56:12.987Z,3.50
2018-01-10T21:58:41.503Z,5.00
2018-01-10T22:01:09.103Z,4.20
2018-01-10T22:03:36.699Z,4.05
2018-01-10T22:06:04.280Z,4.35
2018-01-10T22:08:32.655Z,4.12
2018-01-10T22:11:01.539Z,5.18
2018-01-10T22:13:29.119Z,3.95
2018-01-10T22:15:57.168Z,4.57
2018-01-10T22:18:25.407Z,4.68
2018-01-10T22:20:52.958Z,4.25
2018-01-10T22:23:20.472Z,4.45
2018-01-10T22:25:47.996Z,6.28
2018-01-10T22:28:15.550Z,3.62
2018-01-10T22:30:43.072Z,4.35
2018-01-10T22:33:10.530Z,5.00
2018-01-10T22:35:38.091Z,5.80
2018-01-10T22:38:05.640Z,4.03
2018-01-10T22:40:33.218Z,5.55
2018-01-10T22:43:01.238Z,4.72
2018-01-10T22:45:28.916Z,4.40
2018-01-10T22:47:56.393Z,5.10
2018-01-10T22:50:23.956Z,6.15
2018-01-10T22:52:51.500Z,4.53
2018-01-10T22:55:19.091Z,4.57
2018-01-10T22:57:46.614Z,4.80
2018-01-10T23:00:14.158Z,4.93
2018-01-10T23:02:41.680Z,3.65
2018-01-10T23:05:09.233Z,5.65
2018-01-10T23:07:36.687Z,4.60
2018-01-10T23:10:04.205Z,5.00
2018-01-10T23:12:31.716Z,5.50
2018-01-10T23:14:59.235Z,5.35
2018-01-10T23:17:26.807Z,4.72
2018-01-10T23:19:55.037Z,4.35
2018-01-10T23:22:22.477Z,4.90
2018-01-10T23:24:50.011Z,5.57
2018-01-10T23:27:17.519Z,3.85
2018-01-10T23:29:46.077Z,4.15
2018-01-10T23:32:13.593Z,6.25
2018-01-10T23:34:41.156Z,5.87
2018-01-10T23:37:08.706Z,5.93
2018-01-10T23:39:36.231Z,8.25
2018-01-10T23:42:04.522Z,4.82
2018-01-10T23:44:32.067Z,6.50
2018-01-10T23:46:59.556Z,6.45
2018-01-10T23:49:27.101Z,6.25
2018-01-10T23:51:55.367Z,4.72
2018-01-10T23:54:23.680Z,4.82
2018-01-10T23:56:51.183Z,5.40
2018-01-10T23:59:18.726Z,4.30
